sensor_id;sensor_type;location;lat;lon;timestamp;P1;durP1;ratioP1;P2;durP2;ratioP2
3696;SDS011;60662;48.810;8.872;2023-05-20T06:26:20;12.80;;;4.28;;
3696;SDS011;60662;48.810;8.872;2023-05-20T06:28:31;9.27;;;5.13;;
3696;SDS011;60662;48.810;8.872;2023-05-20T06:29:32;6.68;;;5.03;;
3696;SDS011;60662;48.810;8.872;2023-05-20T06:31:45;7.88;;;5.00;;
3696;SDS011;60662;48.810;8.872;2023-05-20T06:33:59;7.35;;;4.88;;
3696;SDS011;60662;48.810;8.872;2023-05-20T06:36:15;9.30;;;5.32;;
3696;SDS011;60662;48.810;8.872;2023-05-20T06:37:17;8.80;;;4.85;;
3696;SDS011;60662;48.810;8.872;2023-05-20T06:38:19;10.45;;;5.35;;
3696;SDS011;60662;48.810;8.872;2023-05-20T06:39:21;6.40;;;4.28;;
3696;SDS011;60662;48.810;8.872;2023-05-20T06:40:22;9.48;;;4.55;;
3696;SDS011;60662;48.810;8.872;2023-05-20T06:41:24;8.27;;;4.63;;
3696;SDS011;60662;48.810;8.872;2023-05-20T06:43:47;7.78;;;4.57;;
3696;SDS011;60662;48.810;8.872;2023-05-20T06:44:52;7.05;;;4.78;;
3696;SDS011;60662;48.810;8.872;2023-05-20T06:45:54;11.00;;;5.63;;
3696;SDS011;60662;48.810;8.872;2023-05-20T06:46:55;9.30;;;5.25;;
3696;SDS011;60662;48.810;8.872;2023-05-20T06:47:57;9.02;;;4.65;;
3696;SDS011;60662;48.810;8.872;2023-05-20T06:48:58;6.28;;;4.18;;
3696;SDS011;60662;48.810;8.872;2023-05-20T06:50:00;8.95;;;4.97;;
3696;SDS011;60662;48.810;8.872;2023-05-20T06:51:02;9.45;;;5.25;;
3696;SDS011;60662;48.810;8.872;2023-05-20T06:53:06;11.48;;;4.93;;
3696;SDS011;60662;48.810;8.872;2023-05-20T06:54:08;6.45;;;4.95;;
3696;SDS011;60662;48.810;8.872;2023-05-20T06:55:09;9.82;;;4.50;;
3696;SDS011;60662;48.810;8.872;2023-05-20T06:56:11;9.68;;;5.20;;
3696;SDS011;60662;48.810;8.872;2023-05-20T06:57:12;7.05;;;5.35;;
3696;SDS011;60662;48.810;8.872;2023-05-20T06:58:14;7.88;;;4.90;;
3696;SDS011;60662;48.810;8.872;2023-05-20T06:59:15;12.82;;;4.78;;
3696;SDS011;60662;48.810;8.872;2023-05-20T07:00:18;8.55;;;5.28;;
3696;SDS011;60662;48.810;8.872;2023-05-20T07:01:19;10.48;;;5.57;;
3696;SDS011;60662;48.810;8.872;2023-05-20T07:02:21;8.77;;;5.57;;
3696;SDS011;60662;48.810;8.872;2023-05-20T07:03:23;9.55;;;4.75;;
3696;SDS011;60662;48.810;8.872;2023-05-20T07:04:24;8.38;;;5.32;;
3696;SDS011;60662;48.810;8.872;2023-05-20T07:05:26;10.48;;;5.55;;
3696;SDS011;60662;48.810;8.872;2023-05-20T07:06:29;10.20;;;4.95;;
3696;SDS011;60662;48.810;8.872;2023-05-20T07:07:31;12.82;;;5.28;;
3696;SDS011;60662;48.810;8.872;2023-05-20T07:08:33;9.30;;;4.80;;
3696;SDS011;60662;48.810;8.872;2023-05-20T07:09:34;8.18;;;5.28;;
3696;SDS011;60662;48.810;8.872;2023-05-20T07:10:36;11.40;;;5.30;;
3696;SDS011;60662;48.810;8.872;2023-05-20T07:11:37;8.05;;;5.03;;
3696;SDS011;60662;48.810;8.872;2023-05-20T07:12:39;7.40;;;4.53;;
3696;SDS011;60662;48.810;8.872;2023-05-20T07:13:40;8.45;;;5.18;;
3696;SDS011;60662;48.810;8.872;2023-05-20T07:14:41;7.95;;;4.95;;
3696;SDS011;60662;48.810;8.872;2023-05-20T07:15:46;7.60;;;5.13;;
3696;SDS011;60662;48.810;8.872;2023-05-20T07:16:48;6.97;;;5.00;;
3696;SDS011;60662;48.810;8.872;2023-05-20T07:17:49;8.80;;;5.28;;
3696;SDS011;60662;48.810;8.872;2023-05-20T07:18:51;7.35;;;5.20;;
3696;SDS011;60662;48.810;8.872;2023-05-20T07:19:52;8.68;;;5.60;;
3696;SDS011;60662;48.810;8.872;2023-05-20T07:20:54;7.70;;;5.40;;
3696;SDS011;60662;48.810;8.872;2023-05-20T07:21:57;11.90;;;5.60;;
3696;SDS011;60662;48.810;8.872;2023-05-20T07:22:58;8.35;;;5.50;;
3696;SDS011;60662;48.810;8.872;2023-05-20T07:24:01;11.52;;;5.05;;
3696;SDS011;60662;48.810;8.872;2023-05-20T07:25:02;10.90;;;5.93;;
3696;SDS011;60662;48.810;8.872;2023-05-20T07:26:04;9.52;;;5.70;;
3696;SDS011;60662;48.810;8.872;2023-05-20T07:27:06;7.22;;;5.05;;
3696;SDS011;60662;48.810;8.872;2023-05-20T07:28:08;7.28;;;5.00;;
3696;SDS011;60662;48.810;8.872;2023-05-20T07:29:10;10.68;;;5.60;;
3696;SDS011;60662;48.810;8.872;2023-05-20T07:30:11;9.40;;;6.10;;
3696;SDS011;60662;48.810;8.872;2023-05-20T07:31:13;11.23;;;5.07;;
3696;SDS011;60662;48.810;8.872;2023-05-20T07:32:14;8.93;;;5.57;;
3696;SDS011;60662;48.810;8.872;2023-05-20T07:33:16;8.50;;;5.72;;
3696;SDS011;60662;48.810;8.872;2023-05-20T07:34:19;9.55;;;6.18;;
3696;SDS011;60662;48.810;8.872;2023-05-20T07:35:20;9.60;;;6.32;;
3696;SDS011;60662;48.810;8.872;2023-05-20T07:36:22;8.73;;;5.30;;
3696;SDS011;60662;48.810;8.872;2023-05-20T07:37:23;13.13;;;6.07;;
3696;SDS011;60662;48.810;8.872;2023-05-20T07:38:25;12.43;;;5.80;;
3696;SDS011;60662;48.810;8.872;2023-05-20T07:39:27;8.60;;;5.40;;
3696;SDS011;60662;48.810;8.872;2023-05-20T07:40:29;11.57;;;5.55;;
3696;SDS011;60662;48.810;8.872;2023-05-20T07:41:31;7.65;;;5.57;;
3696;SDS011;60662;48.810;8.872;2023-05-20T07:42:32;8.50;;;5.32;;
3696;SDS011;60662;48.810;8.872;2023-05-20T07:43:34;14.27;;;6.00;;
3696;SDS011;60662;48.810;8.872;2023-05-20T07:44:36;12.13;;;6.10;;
3696;SDS011;60662;48.810;8.872;2023-05-20T07:45:37;11.15;;;5.90;;
3696;SDS011;60662;48.810;8.872;2023-05-20T07:46:39;9.98;;;6.57;;
3696;SDS011;60662;48.810;8.872;2023-05-20T07:47:42;8.48;;;6.53;;
3696;SDS011;60662;48.810;8.872;2023-05-20T07:48:43;8.10;;;5.63;;
3696;SDS011;60662;48.810;8.872;2023-05-20T07:49:45;13.60;;;5.60;;
3696;SDS011;60662;48.810;8.872;2023-05-20T07:50:47;9.57;;;5.43;;
3696;SDS011;60662;48.810;8.872;2023-05-20T07:51:48;9.23;;;5.60;;
3696;SDS011;60662;48.810;8.872;2023-05-20T07:52:49;11.73;;;5.68;;
3696;SDS011;60662;48.810;8.872;2023-05-20T07:53:57;8.57;;;5.68;;
3696;SDS011;60662;48.810;8.872;2023-05-20T07:54:58;11.60;;;6.25;;
3696;SDS011;60662;48.810;8.872;2023-05-20T07:56:00;8.73;;;5.53;;
3696;SDS011;60662;48.810;8.872;2023-05-20T07:57:01;9.27;;;5.28;;
3696;SDS011;60662;48.810;8.872;2023-05-20T07:58:03;8.73;;;5.88;;
3696;SDS011;60662;48.810;8.872;2023-05-20T07:59:04;9.30;;;5.03;;
3696;SDS011;60662;48.810;8.872;2023-05-20T08:00:06;10.20;;;5.85;;
3696;SDS011;60662;48.810;8.872;2023-05-20T08:01:15;8.95;;;5.75;;
3696;SDS011;60662;48.810;8.872;2023-05-20T08:02:17;10.23;;;5.75;;
3696;SDS011;60662;48.810;8.872;2023-05-20T08:03:18;12.60;;;6.22;;
3696;SDS011;60662;48.810;8.872;2023-05-20T08:04:22;20.85;;;6.07;;
3696;SDS011;60662;48.810;8.872;2023-05-20T08:05:23;8.60;;;6.30;;
3696;SDS011;60662;48.810;8.872;2023-05-20T08:06:25;9.15;;;5.38;;
3696;SDS011;60662;48.810;8.872;2023-05-20T08:07:29;11.70;;;5.97;;
3696;SDS011;60662;48.810;8.872;2023-05-20T08:08:31;9.15;;;6.45;;
3696;SDS011;60662;48.810;8.872;2023-05-20T08:09:33;10.00;;;6.10;;
3696;SDS011;60662;48.810;8.872;2023-05-20T08:10:35;10.70;;;5.85;;
3696;SDS011;60662;48.810;8.872;2023-05-20T08:11:37;7.53;;;5.10;;
3696;SDS011;60662;48.810;8.872;2023-05-20T08:12:38;10.93;;;6.03;;
3696;SDS011;60662;48.810;8.872;2023-05-20T08:13:39;14.90;;;5.43;;
3696;SDS011;60662;48.810;8.872;2023-05-20T08:14:41;12.70;;;5.70;;
3696;SDS011;60662;48.810;8.872;2023-05-20T08:15:44;8.15;;;5.40;;
3696;SDS011;60662;48.810;8.872;2023-05-20T08:16:45;10.35;;;5.65;;
3696;SDS011;60662;48.810;8.872;2023-05-20T08:17:47;7.15;;;5.45;;
3696;SDS011;60662;48.810;8.872;2023-05-20T08:18:48;8.00;;;5.30;;
3696;SDS011;60662;48.810;8.872;2023-05-20T08:19:50;8.00;;;5.10;;
3696;SDS011;60662;48.810;8.872;2023-05-20T08:20:51;14.70;;;5.50;;
3696;SDS011;60662;48.810;8.872;2023-05-20T08:21:53;10.55;;;5.13;;
3696;SDS011;60662;48.810;8.872;2023-05-20T08:22:54;8.60;;;5.40;;
3696;SDS011;60662;48.810;8.872;2023-05-20T08:23:56;7.43;;;5.65;;
3696;SDS011;60662;48.810;8.872;2023-05-20T08:24:57;8.20;;;5.35;;
3696;SDS011;60662;48.810;8.872;2023-05-20T08:25:59;10.82;;;5.78;;
3696;SDS011;60662;48.810;8.872;2023-05-20T08:27:03;8.48;;;5.55;;
3696;SDS011;60662;48.810;8.872;2023-05-20T08:28:05;8.73;;;5.60;;
3696;SDS011;60662;48.810;8.872;2023-05-20T08:29:07;8.25;;;5.28;;
3696;SDS011;60662;48.810;8.872;2023-05-20T08:30:09;7.68;;;5.50;;
3696;SDS011;60662;48.810;8.872;2023-05-20T08:31:10;7.15;;;4.47;;
3696;SDS011;60662;48.810;8.872;2023-05-20T08:32:12;6.70;;;5.53;;
3696;SDS011;60662;48.810;8.872;2023-05-20T08:33:14;9.13;;;5.60;;
3696;SDS011;60662;48.810;8.872;2023-05-20T08:34:15;9.43;;;5.95;;
3696;SDS011;60662;48.810;8.872;2023-05-20T08:35:17;12.27;;;5.15;;
3696;SDS011;60662;48.810;8.872;2023-05-20T08:36:18;9.88;;;6.65;;
3696;SDS011;60662;48.810;8.872;2023-05-20T08:37:20;10.48;;;6.93;;
3696;SDS011;60662;48.810;8.872;2023-05-20T08:38:21;9.35;;;5.35;;
3696;SDS011;60662;48.810;8.872;2023-05-20T08:39:23;8.30;;;5.50;;
3696;SDS011;60662;48.810;8.872;2023-05-20T08:40:25;8.07;;;5.38;;
3696;SDS011;60662;48.810;8.872;2023-05-20T08:41:27;9.65;;;5.40;;
3696;SDS011;60662;48.810;8.872;2023-05-20T08:42:29;7.88;;;5.05;;
3696;SDS011;60662;48.810;8.872;2023-05-20T08:43:30;9.20;;;5.53;;
3696;SDS011;60662;48.810;8.872;2023-05-20T08:44:32;13.27;;;6.40;;
3696;SDS011;60662;48.810;8.872;2023-05-20T08:45:36;8.98;;;5.57;;
3696;SDS011;60662;48.810;8.872;2023-05-20T08:46:38;7.03;;;5.13;;
3696;SDS011;60662;48.810;8.872;2023-05-20T08:47:41;10.18;;;5.57;;
3696;SDS011;60662;48.810;8.872;2023-05-20T08:48:43;13.35;;;5.75;;
3696;SDS011;60662;48.810;8.872;2023-05-20T08:49:46;8.40;;;5.07;;
3696;SDS011;60662;48.810;8.872;2023-05-20T08:50:49;9.00;;;5.50;;
3696;SDS011;60662;48.810;8.872;2023-05-20T08:51:52;10.07;;;5.35;;
3696;SDS011;60662;48.810;8.872;2023-05-20T08:52:53;11.70;;;5.60;;
3696;SDS011;60662;48.810;8.872;2023-05-20T08:53:55;11.05;;;6.25;;
3696;SDS011;60662;48.810;8.872;2023-05-20T08:54:56;7.63;;;5.00;;
3696;SDS011;60662;48.810;8.872;2023-05-20T08:55:59;13.32;;;6.00;;
3696;SDS011;60662;48.810;8.872;2023-05-20T08:57:04;9.98;;;6.10;;
3696;SDS011;60662;48.810;8.872;2023-05-20T08:58:05;6.90;;;5.10;;
3696;SDS011;60662;48.810;8.872;2023-05-20T08:59:07;8.35;;;4.90;;
3696;SDS011;60662;48.810;8.872;2023-05-20T09:00:09;8.73;;;5.65;;
3696;SDS011;60662;48.810;8.872;2023-05-20T09:01:13;11.13;;;6.28;;
3696;SDS011;60662;48.810;8.872;2023-05-20T09:02:15;8.70;;;5.22;;
3696;SDS011;60662;48.810;8.872;2023-05-20T09:03:17;9.30;;;6.28;;
3696;SDS011;60662;48.810;8.872;2023-05-20T09:04:20;11.55;;;5.72;;
3696;SDS011;60662;48.810;8.872;2023-05-20T09:05:22;8.15;;;5.72;;
3696;SDS011;60662;48.810;8.872;2023-05-20T09:06:23;9.73;;;5.65;;
3696;SDS011;60662;48.810;8.872;2023-05-20T09:07:25;10.27;;;5.93;;
3696;SDS011;60662;48.810;8.872;2023-05-20T09:08:28;10.88;;;5.85;;
3696;SDS011;60662;48.810;8.872;2023-05-20T09:09:32;8.32;;;5.43;;
3696;SDS011;60662;48.810;8.872;2023-05-20T09:10:35;9.18;;;5.38;;
3696;SDS011;60662;48.810;8.872;2023-05-20T09:11:39;13.07;;;7.45;;
3696;SDS011;60662;48.810;8.872;2023-05-20T09:12:41;13.27;;;6.70;;
3696;SDS011;60662;48.810;8.872;2023-05-20T09:13:43;11.05;;;5.63;;
3696;SDS011;60662;48.810;8.872;2023-05-20T09:14:44;8.45;;;5.40;;
3696;SDS011;60662;48.810;8.872;2023-05-20T09:15:46;13.63;;;5.95;;
3696;SDS011;60662;48.810;8.872;2023-05-20T09:16:47;12.65;;;5.90;;
3696;SDS011;60662;48.810;8.872;2023-05-20T09:17:49;11.27;;;5.80;;
3696;SDS011;60662;48.810;8.872;2023-05-20T09:18:54;8.60;;;5.18;;
3696;SDS011;60662;48.810;8.872;2023-05-20T09:19:56;10.95;;;5.00;;
3696;SDS011;60662;48.810;8.872;2023-05-20T09:21:03;8.60;;;5.43;;
3696;SDS011;60662;48.810;8.872;2023-05-20T09:22:05;9.27;;;4.97;;
3696;SDS011;60662;48.810;8.872;2023-05-20T09:23:08;8.65;;;5.88;;
3696;SDS011;60662;48.810;8.872;2023-05-20T09:24:10;12.50;;;5.43;;
3696;SDS011;60662;48.810;8.872;2023-05-20T09:25:11;9.80;;;5.05;;
3696;SDS011;60662;48.810;8.872;2023-05-20T09:26:16;8.40;;;5.85;;
3696;SDS011;60662;48.810;8.872;2023-05-20T09:27:18;10.90;;;5.28;;
3696;SDS011;60662;48.810;8.872;2023-05-20T09:28:21;10.52;;;6.43;;
3696;SDS011;60662;48.810;8.872;2023-05-20T09:29:25;12.57;;;5.72;;
3696;SDS011;60662;48.810;8.872;2023-05-20T09:30:27;8.02;;;5.40;;
3696;SDS011;60662;48.810;8.872;2023-05-20T09:31:32;8.15;;;5.70;;
3696;SDS011;60662;48.810;8.872;2023-05-20T09:32:34;8.90;;;5.40;;
3696;SDS011;60662;48.810;8.872;2023-05-20T09:33:35;15.82;;;5.50;;
3696;SDS011;60662;48.810;8.872;2023-05-20T09:34:37;15.07;;;6.25;;
3696;SDS011;60662;48.810;8.872;2023-05-20T09:35:38;10.00;;;5.18;;
3696;SDS011;60662;48.810;8.872;2023-05-20T09:36:40;7.43;;;4.57;;
3696;SDS011;60662;48.810;8.872;2023-05-20T09:37:44;8.00;;;5.47;;
3696;SDS011;60662;48.810;8.872;2023-05-20T09:38:48;8.50;;;6.00;;
3696;SDS011;60662;48.810;8.872;2023-05-20T09:39:54;6.82;;;4.82;;
3696;SDS011;60662;48.810;8.872;2023-05-20T09:41:01;6.15;;;4.90;;
3696;SDS011;60662;48.810;8.872;2023-05-20T09:42:11;8.45;;;6.07;;
3696;SDS011;60662;48.810;8.872;2023-05-20T09:43:18;8.18;;;5.43;;
3696;SDS011;60662;48.810;8.872;2023-05-20T09:44:20;7.57;;;5.40;;
3696;SDS011;60662;48.810;8.872;2023-05-20T09:45:23;9.98;;;5.40;;
3696;SDS011;60662;48.810;8.872;2023-05-20T09:46:25;10.77;;;5.50;;
3696;SDS011;60662;48.810;8.872;2023-05-20T09:47:28;9.82;;;5.90;;
3696;SDS011;60662;48.810;8.872;2023-05-20T09:48:30;6.45;;;5.32;;
3696;SDS011;60662;48.810;8.872;2023-05-20T09:49:34;9.40;;;5.63;;
3696;SDS011;60662;48.810;8.872;2023-05-20T09:50:36;10.25;;;5.57;;
3696;SDS011;60662;48.810;8.872;2023-05-20T09:51:39;10.05;;;5.40;;
3696;SDS011;60662;48.810;8.872;2023-05-20T09:52:42;10.82;;;5.40;;
3696;SDS011;60662;48.810;8.872;2023-05-20T09:53:44;9.90;;;6.07;;
3696;SDS011;60662;48.810;8.872;2023-05-20T09:54:45;9.40;;;6.20;;
3696;SDS011;60662;48.810;8.872;2023-05-20T09:55:49;7.00;;;5.18;;
3696;SDS011;60662;48.810;8.872;2023-05-20T09:56:52;7.65;;;4.97;;
3696;SDS011;60662;48.810;8.872;2023-05-20T09:57:54;10.55;;;5.78;;
3696;SDS011;60662;48.810;8.872;2023-05-20T09:58:57;10.38;;;5.40;;
3696;SDS011;60662;48.810;8.872;2023-05-20T09:59:59;9.43;;;5.82;;
3696;SDS011;60662;48.810;8.872;2023-05-20T10:01:01;8.27;;;6.07;;
3696;SDS011;60662;48.810;8.872;2023-05-20T10:02:04;10.98;;;5.00;;
3696;SDS011;60662;48.810;8.872;2023-05-20T10:03:06;6.55;;;4.95;;
3696;SDS011;60662;48.810;8.872;2023-05-20T10:04:09;8.77;;;5.75;;
3696;SDS011;60662;48.810;8.872;2023-05-20T10:05:18;8.63;;;6.05;;
3696;SDS011;60662;48.810;8.872;2023-05-20T10:11:43;9.02;;;5.18;;
3696;SDS011;60662;48.810;8.872;2023-05-20T10:19:27;7.68;;;4.70;;
3696;SDS011;60662;48.810;8.872;2023-05-20T10:20:31;6.13;;;5.05;;
3696;SDS011;60662;48.810;8.872;2023-05-20T10:21:33;12.68;;;5.53;;
3696;SDS011;60662;48.810;8.872;2023-05-20T10:22:34;6.45;;;4.82;;
3696;SDS011;60662;48.810;8.872;2023-05-20T10:23:36;8.88;;;5.20;;
3696;SDS011;60662;48.810;8.872;2023-05-20T10:24:38;7.38;;;4.50;;
3696;SDS011;60662;48.810;8.872;2023-05-20T10:25:48;9.57;;;4.70;;
3696;SDS011;60662;48.810;8.872;2023-05-20T10:26:54;5.85;;;4.15;;
3696;SDS011;60662;48.810;8.872;2023-05-20T10:28:07;7.93;;;4.20;;
3696;SDS011;60662;48.810;8.872;2023-05-20T10:29:19;6.53;;;4.43;;
3696;SDS011;60662;48.810;8.872;2023-05-20T10:30:22;10.20;;;4.63;;
3696;SDS011;60662;48.810;8.872;2023-05-20T10:31:24;6.75;;;5.40;;
3696;SDS011;60662;48.810;8.872;2023-05-20T10:32:27;7.30;;;4.85;;
3696;SDS011;60662;48.810;8.872;2023-05-20T10:33:39;6.13;;;4.75;;
3696;SDS011;60662;48.810;8.872;2023-05-20T10:34:46;9.05;;;4.82;;
3696;SDS011;60662;48.810;8.872;2023-05-20T10:35:50;12.27;;;4.88;;
3696;SDS011;60662;48.810;8.872;2023-05-20T10:37:54;7.68;;;5.30;;
3696;SDS011;60662;48.810;8.872;2023-05-20T10:39:07;6.93;;;4.90;;
3696;SDS011;60662;48.810;8.872;2023-05-20T10:40:19;7.10;;;4.75;;
3696;SDS011;60662;48.810;8.872;2023-05-20T10:41:25;7.93;;;4.85;;
3696;SDS011;60662;48.810;8.872;2023-05-20T10:42:28;7.70;;;4.95;;
3696;SDS011;60662;48.810;8.872;2023-05-20T10:43:32;5.85;;;4.60;;
3696;SDS011;60662;48.810;8.872;2023-05-20T10:44:43;8.93;;;5.30;;
3696;SDS011;60662;48.810;8.872;2023-05-20T10:45:49;9.98;;;5.18;;
3696;SDS011;60662;48.810;8.872;2023-05-20T10:47:01;8.23;;;5.53;;
3696;SDS011;60662;48.810;8.872;2023-05-20T10:49:32;7.40;;;4.95;;
3696;SDS011;60662;48.810;8.872;2023-05-20T10:50:35;6.85;;;4.40;;
3696;SDS011;60662;48.810;8.872;2023-05-20T10:51:38;4.78;;;3.72;;
3696;SDS011;60662;48.810;8.872;2023-05-20T10:52:40;14.20;;;5.10;;
3696;SDS011;60662;48.810;8.872;2023-05-20T10:53:44;6.13;;;4.78;;
3696;SDS011;60662;48.810;8.872;2023-05-20T10:54:46;7.90;;;4.70;;
3696;SDS011;60662;48.810;8.872;2023-05-20T10:55:58;9.15;;;4.30;;
3696;SDS011;60662;48.810;8.872;2023-05-20T10:56:59;6.72;;;4.53;;
3696;SDS011;60662;48.810;8.872;2023-05-20T10:58:06;9.13;;;4.70;;
3696;SDS011;60662;48.810;8.872;2023-05-20T10:59:08;8.18;;;4.20;;
3696;SDS011;60662;48.810;8.872;2023-05-20T11:00:10;7.35;;;4.38;;
3696;SDS011;60662;48.810;8.872;2023-05-20T11:01:14;7.47;;;4.70;;
3696;SDS011;60662;48.810;8.872;2023-05-20T11:02:17;7.57;;;4.88;;
3696;SDS011;60662;48.810;8.872;2023-05-20T11:03:22;6.50;;;4.65;;
3696;SDS011;60662;48.810;8.872;2023-05-20T11:04:25;10.27;;;4.75;;
3696;SDS011;60662;48.810;8.872;2023-05-20T11:05:29;8.75;;;4.00;;
3696;SDS011;60662;48.810;8.872;2023-05-20T11:06:32;7.95;;;4.38;;
3696;SDS011;60662;48.810;8.872;2023-05-20T11:07:34;10.10;;;5.13;;
3696;SDS011;60662;48.810;8.872;2023-05-20T11:08:35;11.55;;;5.10;;
3696;SDS011;60662;48.810;8.872;2023-05-20T11:09:37;6.55;;;4.47;;
3696;SDS011;60662;48.810;8.872;2023-05-20T11:10:40;6.18;;;4.75;;
3696;SDS011;60662;48.810;8.872;2023-05-20T11:11:42;10.27;;;5.25;;
3696;SDS011;60662;48.810;8.872;2023-05-20T11:12:44;9.13;;;4.82;;
3696;SDS011;60662;48.810;8.872;2023-05-20T11:13:49;6.03;;;4.60;;
3696;SDS011;60662;48.810;8.872;2023-05-20T11:14:52;7.03;;;4.90;;
3696;SDS011;60662;48.810;8.872;2023-05-20T11:15:54;9.65;;;5.07;;
3696;SDS011;60662;48.810;8.872;2023-05-20T11:16:56;7.43;;;4.82;;
3696;SDS011;60662;48.810;8.872;2023-05-20T11:18:00;7.72;;;5.18;;
3696;SDS011;60662;48.810;8.872;2023-05-20T11:19:13;6.20;;;4.22;;
3696;SDS011;60662;48.810;8.872;2023-05-20T11:20:15;6.68;;;5.05;;
3696;SDS011;60662;48.810;8.872;2023-05-20T11:21:17;10.23;;;4.80;;
3696;SDS011;60662;48.810;8.872;2023-05-20T11:22:20;6.22;;;4.90;;
3696;SDS011;60662;48.810;8.872;2023-05-20T11:23:21;8.32;;;4.22;;
3696;SDS011;60662;48.810;8.872;2023-05-20T11:24:24;7.60;;;4.88;;
3696;SDS011;60662;48.810;8.872;2023-05-20T11:25:27;7.15;;;5.55;;
3696;SDS011;60662;48.810;8.872;2023-05-20T11:26:29;10.77;;;4.63;;
3696;SDS011;60662;48.810;8.872;2023-05-20T11:27:32;6.45;;;3.95;;
3696;SDS011;60662;48.810;8.872;2023-05-20T11:28:34;8.27;;;4.55;;
3696;SDS011;60662;48.810;8.872;2023-05-20T11:29:36;6.63;;;4.70;;
3696;SDS011;60662;48.810;8.872;2023-05-20T11:30:43;6.78;;;4.18;;
3696;SDS011;60662;48.810;8.872;2023-05-20T11:31:46;6.25;;;5.13;;
3696;SDS011;60662;48.810;8.872;2023-05-20T11:32:59;11.57;;;6.40;;
3696;SDS011;60662;48.810;8.872;2023-05-20T11:34:01;8.35;;;4.85;;
3696;SDS011;60662;48.810;8.872;2023-05-20T11:35:04;6.47;;;5.03;;
3696;SDS011;60662;48.810;8.872;2023-05-20T11:36:08;7.38;;;4.70;;
3696;SDS011;60662;48.810;8.872;2023-05-20T11:37:27;6.45;;;4.28;;
3696;SDS011;60662;48.810;8.872;2023-05-20T11:38:29;7.07;;;4.50;;
3696;SDS011;60662;48.810;8.872;2023-05-20T11:39:30;5.80;;;4.95;;
3696;SDS011;60662;48.810;8.872;2023-05-20T11:40:33;8.15;;;5.40;;
3696;SDS011;60662;48.810;8.872;2023-05-20T11:41:50;7.93;;;4.72;;
3696;SDS011;60662;48.810;8.872;2023-05-20T11:42:55;5.45;;;4.20;;
3696;SDS011;60662;48.810;8.872;2023-05-20T11:43:58;11.77;;;5.22;;
3696;SDS011;60662;48.810;8.872;2023-05-20T11:45:01;11.73;;;4.95;;
3696;SDS011;60662;48.810;8.872;2023-05-20T11:46:03;7.38;;;4.80;;
3696;SDS011;60662;48.810;8.872;2023-05-20T11:47:05;7.18;;;4.97;;
3696;SDS011;60662;48.810;8.872;2023-05-20T11:48:07;8.65;;;4.45;;
3696;SDS011;60662;48.810;8.872;2023-05-20T11:49:09;6.60;;;5.35;;
3696;SDS011;60662;48.810;8.872;2023-05-20T11:50:15;9.20;;;4.55;;
3696;SDS011;60662;48.810;8.872;2023-05-20T11:51:21;5.97;;;4.10;;
3696;SDS011;60662;48.810;8.872;2023-05-20T11:52:32;9.45;;;4.30;;
3696;SDS011;60662;48.810;8.872;2023-05-20T11:53:33;8.73;;;5.35;;
3696;SDS011;60662;48.810;8.872;2023-05-20T11:54:35;12.07;;;5.05;;
3696;SDS011;60662;48.810;8.872;2023-05-20T11:55:43;8.50;;;5.10;;
3696;SDS011;60662;48.810;8.872;2023-05-20T11:56:56;6.93;;;4.90;;
3696;SDS011;60662;48.810;8.872;2023-05-20T11:57:59;5.18;;;3.97;;
3696;SDS011;60662;48.810;8.872;2023-05-20T11:59:02;8.95;;;5.07;;
3696;SDS011;60662;48.810;8.872;2023-05-20T12:00:05;7.10;;;4.63;;
3696;SDS011;60662;48.810;8.872;2023-05-20T12:01:10;5.43;;;4.43;;
3696;SDS011;60662;48.810;8.872;2023-05-20T12:02:23;7.32;;;4.63;;
3696;SDS011;60662;48.810;8.872;2023-05-20T12:03:24;7.80;;;5.38;;
3696;SDS011;60662;48.810;8.872;2023-05-20T12:04:26;9.05;;;5.32;;
3696;SDS011;60662;48.810;8.872;2023-05-20T12:05:28;8.45;;;4.65;;
3696;SDS011;60662;48.810;8.872;2023-05-20T12:06:29;5.32;;;4.20;;
3696;SDS011;60662;48.810;8.872;2023-05-20T12:07:31;8.75;;;4.70;;
3696;SDS011;60662;48.810;8.872;2023-05-20T12:08:33;7.82;;;4.13;;
3696;SDS011;60662;48.810;8.872;2023-05-20T12:09:34;9.75;;;4.80;;
3696;SDS011;60662;48.810;8.872;2023-05-20T12:10:36;8.18;;;5.55;;
3696;SDS011;60662;48.810;8.872;2023-05-20T12:11:38;10.30;;;4.93;;
3696;SDS011;60662;48.810;8.872;2023-05-20T12:12:42;7.13;;;4.28;;
3696;SDS011;60662;48.810;8.872;2023-05-20T12:13:45;7.68;;;4.85;;
3696;SDS011;60662;48.810;8.872;2023-05-20T12:14:47;9.57;;;4.57;;
3696;SDS011;60662;48.810;8.872;2023-05-20T12:15:48;5.28;;;3.97;;
3696;SDS011;60662;48.810;8.872;2023-05-20T12:16:49;8.55;;;4.80;;
3696;SDS011;60662;48.810;8.872;2023-05-20T12:17:52;7.38;;;4.63;;
3696;SDS011;60662;48.810;8.872;2023-05-20T12:18:54;8.50;;;5.28;;
3696;SDS011;60662;48.810;8.872;2023-05-20T12:19:55;6.60;;;4.45;;
3696;SDS011;60662;48.810;8.872;2023-05-20T12:20:57;6.60;;;5.25;;
3696;SDS011;60662;48.810;8.872;2023-05-20T12:21:59;6.45;;;4.43;;
3696;SDS011;60662;48.810;8.872;2023-05-20T12:23:02;8.43;;;4.80;;
3696;SDS011;60662;48.810;8.872;2023-05-20T12:24:04;9.15;;;5.20;;
3696;SDS011;60662;48.810;8.872;2023-05-20T12:25:09;11.15;;;5.20;;
3696;SDS011;60662;48.810;8.872;2023-05-20T12:26:12;7.80;;;4.57;;
3696;SDS011;60662;48.810;8.872;2023-05-20T12:27:13;7.28;;;4.95;;
3696;SDS011;60662;48.810;8.872;2023-05-20T12:28:15;6.82;;;4.28;;
3696;SDS011;60662;48.810;8.872;2023-05-20T12:29:17;8.70;;;4.95;;
3696;SDS011;60662;48.810;8.872;2023-05-20T12:30:20;8.55;;;4.63;;
3696;SDS011;60662;48.810;8.872;2023-05-20T12:31:23;5.97;;;4.55;;
3696;SDS011;60662;48.810;8.872;2023-05-20T12:32:25;8.93;;;5.22;;
3696;SDS011;60662;48.810;8.872;2023-05-20T12:33:27;9.52;;;5.32;;
3696;SDS011;60662;48.810;8.872;2023-05-20T12:34:28;6.97;;;4.47;;
3696;SDS011;60662;48.810;8.872;2023-05-20T12:36:39;10.77;;;4.95;;
3696;SDS011;60662;48.810;8.872;2023-05-20T12:37:41;5.95;;;3.78;;
3696;SDS011;60662;48.810;8.872;2023-05-20T12:38:43;9.77;;;4.20;;
3696;SDS011;60662;48.810;8.872;2023-05-20T12:39:44;8.82;;;3.70;;
3696;SDS011;60662;48.810;8.872;2023-05-20T12:40:46;10.02;;;3.90;;
3696;SDS011;60662;48.810;8.872;2023-05-20T12:41:48;5.07;;;3.60;;
3696;SDS011;60662;48.810;8.872;2023-05-20T12:42:49;5.40;;;3.90;;
3696;SDS011;60662;48.810;8.872;2023-05-20T12:43:51;5.82;;;3.90;;
3696;SDS011;60662;48.810;8.872;2023-05-20T12:44:52;4.88;;;3.40;;
3696;SDS011;60662;48.810;8.872;2023-05-20T12:45:54;7.35;;;3.80;;
3696;SDS011;60662;48.810;8.872;2023-05-20T12:46:56;4.50;;;3.75;;
3696;SDS011;60662;48.810;8.872;2023-05-20T12:47:57;6.55;;;3.70;;
3696;SDS011;60662;48.810;8.872;2023-05-20T12:48:59;8.75;;;3.40;;
3696;SDS011;60662;48.810;8.872;2023-05-20T12:50:01;4.30;;;3.55;;
3696;SDS011;60662;48.810;8.872;2023-05-20T12:51:03;6.00;;;3.67;;
3696;SDS011;60662;48.810;8.872;2023-05-20T12:52:06;6.20;;;3.80;;
3696;SDS011;60662;48.810;8.872;2023-05-20T12:53:19;8.10;;;3.80;;
3696;SDS011;60662;48.810;8.872;2023-05-20T12:54:20;5.20;;;3.55;;
3696;SDS011;60662;48.810;8.872;2023-05-20T12:55:22;4.80;;;3.55;;
3696;SDS011;60662;48.810;8.872;2023-05-20T12:56:23;6.65;;;3.83;;
3696;SDS011;60662;48.810;8.872;2023-05-20T12:57:26;5.00;;;3.90;;
3696;SDS011;60662;48.810;8.872;2023-05-20T12:58:28;4.93;;;3.30;;
3696;SDS011;60662;48.810;8.872;2023-05-20T12:59:29;7.20;;;3.92;;
3696;SDS011;60662;48.810;8.872;2023-05-20T13:00:31;5.57;;;3.30;;
3696;SDS011;60662;48.810;8.872;2023-05-20T13:01:32;8.50;;;3.45;;
3696;SDS011;60662;48.810;8.872;2023-05-20T13:02:35;4.28;;;3.13;;
3696;SDS011;60662;48.810;8.872;2023-05-20T13:03:40;8.50;;;4.43;;
3696;SDS011;60662;48.810;8.872;2023-05-20T13:04:41;4.40;;;3.80;;
3696;SDS011;60662;48.810;8.872;2023-05-20T13:05:43;7.50;;;4.65;;
3696;SDS011;60662;48.810;8.872;2023-05-20T13:06:44;5.07;;;3.80;;
3696;SDS011;60662;48.810;8.872;2023-05-20T13:07:46;5.40;;;3.58;;
3696;SDS011;60662;48.810;8.872;2023-05-20T13:08:47;5.10;;;3.22;;
3696;SDS011;60662;48.810;8.872;2023-05-20T13:09:48;4.80;;;3.70;;
3696;SDS011;60662;48.810;8.872;2023-05-20T13:10:50;5.90;;;3.92;;
3696;SDS011;60662;48.810;8.872;2023-05-20T13:11:51;6.65;;;3.75;;